Time;durP1;ratioP1;P1;durP2;ratioP2;P2;SDS_P1;SDS_P2;PMS_P1;PMS_P2;Temp;Humidity;BMP_temperature;BMP_pressure;BME280_temperature;BME280_humidity;BME280_pressure;Samples;Min_cycle;Max_cycle;Signal;HPM_P1;HPM_P2
2022/11/30 00:01:10;;;;;;;25.75;18.73;;;8.30;99.90;;;;;;5033979;28;20190;-62
2022/11/30 00:03:35;;;;;;;33.03;21.00;;;8.60;99.90;;;;;;5032235;28;20206;-62
2022/11/30 00:06:09;;;;;;;30.30;23.07;;;8.30;99.90;;;;;;5031774;28;20209;-63
2022/11/30 00:08:35;;;;;;;29.80;20.90;;;8.30;99.90;;;;;;5032135;28;20643;-62
2022/11/30 00:11:09;;;;;;;29.67;22.33;;;8.70;99.90;;;;;;5031829;28;20197;-61
2022/11/30 00:13:35;;;;;;;33.70;21.63;;;8.50;99.90;;;;;;5031805;28;20306;-62
2022/11/30 00:16:00;;;;;;;30.47;22.10;;;8.30;99.90;;;;;;5031698;28;20710;-62
2022/11/30 00:18:26;;;;;;;28.17;20.47;;;8.60;99.90;;;;;;5030802;28;20196;-62
2022/11/30 00:20:52;;;;;;;28.57;21.10;;;8.30;99.90;;;;;;5032382;28;20178;-62
2022/11/30 00:23:17;;;;;;;26.77;20.70;;;8.40;99.90;;;;;;5025836;28;20220;-62
2022/11/30 00:25:43;;;;;;;29.77;20.03;;;8.50;99.90;;;;;;5030511;28;20186;-62
2022/11/30 00:28:09;;;;;;;31.20;21.00;;;8.30;99.90;;;;;;5031974;28;20617;-62
2022/11/30 00:30:34;;;;;;;31.10;22.03;;;8.50;99.90;;;;;;5030899;28;20174;-62
2022/11/30 00:33:01;;;;;;;29.60;21.00;;;8.40;99.90;;;;;;5031798;28;20202;-62
2022/11/30 00:35:26;;;;;;;28.55;22.00;;;8.50;99.90;;;;;;5030980;28;20224;-62
2022/11/30 00:37:52;;;;;;;37.00;21.80;;;8.30;99.90;;;;;;5029197;28;20233;-62
2022/11/30 00:40:18;;;;;;;29.07;20.90;;;8.50;99.90;;;;;;5031267;28;20178;-62
2022/11/30 00:42:43;;;;;;;33.17;21.50;;;8.40;99.90;;;;;;5031226;28;20250;-62
2022/11/30 00:45:09;;;;;;;32.10;22.03;;;8.50;99.90;;;;;;5030488;28;20234;-62
2022/11/30 00:47:35;;;;;;;30.70;21.17;;;8.40;99.90;;;;;;5031270;28;20190;-62
2022/11/30 00:50:02;;;;;;;28.60;20.70;;;8.60;99.90;;;;;;5031857;28;21091;-62
2022/11/30 00:52:29;;;;;;;29.17;19.80;;;8.30;99.90;;;;;;5030966;28;20606;-62
2022/11/30 00:54:55;;;;;;;31.65;20.65;;;8.40;99.90;;;;;;5032163;28;20293;-62
2022/11/30 00:57:20;;;;;;;29.93;21.97;;;8.30;99.90;;;;;;5031248;28;20270;-62
2022/11/30 00:59:46;;;;;;;28.00;19.00;;;8.60;99.90;;;;;;5030632;28;20451;-62
2022/11/30 01:02:12;;;;;;;29.30;20.40;;;8.50;99.90;;;;;;5031490;28;20182;-62
2022/11/30 01:04:37;;;;;;;26.77;19.60;;;8.10;99.90;;;;;;5028537;28;20321;-63
2022/11/30 01:07:03;;;;;;;26.13;19.70;;;8.20;99.90;;;;;;5045518;28;20190;-63
2022/11/30 01:09:28;;;;;;;27.60;19.33;;;8.10;99.90;;;;;;5031071;28;20198;-63
2022/11/30 01:11:54;;;;;;;28.30;19.97;;;8.20;99.90;;;;;;5031588;28;20237;-61
2022/11/30 01:14:20;;;;;;;27.37;19.47;;;8.40;99.90;;;;;;5030290;28;20230;-61
2022/11/30 01:16:45;;;;;;;26.80;20.13;;;8.10;99.90;;;;;;5030900;28;20343;-62
2022/11/30 01:19:11;;;;;;;25.07;18.40;;;8.40;99.90;;;;;;5031049;28;20639;-62
2022/11/30 01:21:37;;;;;;;27.07;19.47;;;8.40;99.90;;;;;;5030286;28;20190;-61
2022/11/30 01:24:03;;;;;;;28.90;20.65;;;8.30;99.90;;;;;;5029373;28;20218;-61
2022/11/30 01:26:29;;;;;;;27.07;19.00;;;8.20;99.90;;;;;;5029579;28;20601;-61
2022/11/30 01:28:55;;;;;;;27.47;18.87;;;8.10;99.90;;;;;;5031602;28;20447;-61
2022/11/30 01:31:23;;;;;;;31.08;20.33;;;8.10;99.90;;;;;;5030618;28;20563;-62
2022/11/30 01:33:50;;;;;;;31.90;19.38;;;8.20;99.90;;;;;;5030015;28;20229;-62
2022/11/30 01:36:18;;;;;;;24.52;19.98;;;8.30;99.90;;;;;;5029446;28;20530;-62
2022/11/30 01:38:47;;;;;;;28.50;20.20;;;8.00;99.90;;;;;;5023462;28;20186;-61
2022/11/30 01:41:17;;;;;;;25.60;19.38;;;8.00;99.90;;;;;;5030328;28;20547;-62
2022/11/30 01:43:46;;;;;;;29.95;20.10;;;8.20;99.90;;;;;;5042943;28;20372;-61
2022/11/30 01:46:26;;;;;;;26.58;18.00;;;8.40;99.90;;;;;;5029530;28;20935;-61
2022/11/30 01:49:16;;;;;;;26.23;18.90;;;8.10;99.90;;;;;;5027975;28;20190;-61
2022/11/30 01:51:58;;;;;;;26.85;19.60;;;8.20;99.90;;;;;;5023965;28;20182;-63
2022/11/30 01:54:28;;;;;;;26.25;19.45;;;8.00;99.90;;;;;;5029608;28;20221;-61
2022/11/30 01:57:03;;;;;;;25.60;17.30;;;8.10;99.90;;;;;;5027951;28;20210;-63
2022/11/30 01:59:29;;;;;;;24.48;17.58;;;8.00;99.90;;;;;;5030270;28;20189;-63
2022/11/30 02:01:55;;;;;;;25.03;18.20;;;8.10;99.90;;;;;;5030064;28;20845;-63
2022/11/30 02:04:31;;;;;;;22.40;18.00;;;8.10;99.90;;;;;;5033892;28;20709;-63
2022/11/30 02:06:58;;;;;;;23.25;17.13;;;8.20;99.90;;;;;;5029233;28;20194;-61
2022/11/30 02:09:25;;;;;;;27.88;19.80;;;8.20;99.90;;;;;;5030347;28;20213;-61
2022/11/30 02:11:51;;;;;;;22.42;16.77;;;8.10;99.90;;;;;;5031689;28;20186;-61
2022/11/30 02:14:38;;;;;;;24.17;16.70;;;8.00;99.90;;;;;;5034216;28;20674;-61
2022/11/30 02:17:15;;;;;;;23.50;18.60;;;8.00;99.90;;;;;;5026807;28;20450;-61
2022/11/30 02:20:01;;;;;;;25.48;18.75;;;7.90;99.90;;;;;;5028296;28;20189;-63
2022/11/30 02:23:01;;;;;;;24.73;18.80;;;8.20;99.90;;;;;;5026684;28;20206;-61
2022/11/30 02:25:53;;;;;;;26.98;18.60;;;8.00;99.90;;;;;;5029608;28;20188;-62
2022/11/30 02:28:52;;;;;;;21.77;16.42;;;8.00;99.90;;;;;;5024936;28;20221;-62
2022/11/30 02:31:24;;;;;;;21.88;17.05;;;8.20;99.90;;;;;;5027824;28;20682;-62
2022/11/30 02:33:51;;;;;;;23.40;17.60;;;8.10;99.90;;;;;;5033666;28;20732;-62
2022/11/30 02:36:18;;;;;;;22.23;16.73;;;8.20;99.90;;;;;;5030536;28;20197;-62
2022/11/30 02:38:45;;;;;;;22.15;16.38;;;8.10;99.90;;;;;;5031052;28;20186;-62
2022/11/30 02:41:11;;;;;;;23.52;17.08;;;7.90;99.90;;;;;;5031023;28;20198;-62
2022/11/30 02:43:38;;;;;;;23.50;17.00;;;8.30;99.90;;;;;;5032034;28;20214;-61
2022/11/30 02:46:14;;;;;;;24.30;17.42;;;8.20;99.90;;;;;;5026649;28;20265;-62
2022/11/30 02:48:50;;;;;;;21.67;15.65;;;8.20;99.90;;;;;;5031812;28;20178;-63
2022/11/30 02:51:20;;;;;;;21.95;16.25;;;8.20;99.90;;;;;;5029836;28;20730;-64
2022/11/30 02:53:47;;;;;;;22.17;15.57;;;8.20;99.90;;;;;;5031071;28;21013;-63
2022/11/30 02:56:13;;;;;;;23.83;16.75;;;8.20;99.90;;;;;;5031908;28;20299;-64
2022/11/30 02:58:39;;;;;;;19.83;16.27;;;8.40;99.90;;;;;;5033339;28;20190;-64
2022/11/30 03:01:05;;;;;;;21.27;15.98;;;8.20;99.90;;;;;;5031199;28;20241;-63
2022/11/30 03:03:31;;;;;;;23.90;18.07;;;8.10;99.90;;;;;;5028104;28;20699;-64
2022/11/30 03:05:56;;;;;;;23.10;16.43;;;8.40;99.90;;;;;;5025564;28;20182;-64
2022/11/30 03:08:22;;;;;;;22.03;15.83;;;8.00;99.90;;;;;;5031048;28;20210;-63
2022/11/30 03:10:48;;;;;;;19.87;15.30;;;8.10;99.90;;;;;;5029705;28;20189;-64
2022/11/30 03:13:13;;;;;;;21.13;15.20;;;8.20;99.90;;;;;;5031473;28;20554;-64
2022/11/30 03:15:39;;;;;;;20.53;15.40;;;8.30;99.90;;;;;;5031230;28;20190;-63
2022/11/30 03:18:05;;;;;;;19.53;14.57;;;8.20;99.90;;;;;;5031620;28;20602;-64
2022/11/30 03:20:31;;;;;;;19.10;14.00;;;8.30;99.90;;;;;;5033473;28;20182;-64
2022/11/30 03:23:00;;;;;;;19.33;14.80;;;8.30;99.90;;;;;;5032111;28;20293;-63
2022/11/30 03:25:27;;;;;;;18.25;14.23;;;8.30;99.90;;;;;;5033320;28;20475;-64
2022/11/30 03:27:53;;;;;;;17.20;13.75;;;8.30;99.90;;;;;;5032126;28;20731;-64
2022/11/30 03:30:19;;;;;;;16.17;13.83;;;8.00;99.90;;;;;;5032282;28;20285;-63
2022/11/30 03:32:44;;;;;;;18.90;13.90;;;8.10;99.90;;;;;;5032677;28;20439;-64
2022/11/30 03:35:10;;;;;;;18.20;14.50;;;8.10;99.90;;;;;;5047963;28;20439;-64
2022/11/30 03:37:36;;;;;;;16.90;13.40;;;8.20;99.90;;;;;;5032160;28;20200;-64
2022/11/30 03:40:03;;;;;;;20.43;14.43;;;8.00;99.90;;;;;;5029912;28;20198;-63
2022/11/30 03:42:28;;;;;;;18.17;14.38;;;8.30;99.90;;;;;;5030803;28;20261;-63
2022/11/30 03:44:54;;;;;;;19.60;14.30;;;8.30;99.90;;;;;;5033341;28;20225;-64
2022/11/30 03:47:19;;;;;;;22.90;15.33;;;8.10;99.90;;;;;;5031986;28;20221;-64
2022/11/30 03:49:45;;;;;;;17.90;14.77;;;8.00;99.90;;;;;;5032342;28;20206;-63
2022/11/30 03:52:11;;;;;;;19.40;14.80;;;7.90;99.90;;;;;;5031336;28;20186;-63
2022/11/30 03:54:39;;;;;;;21.80;15.67;;;8.00;99.90;;;;;;5031870;28;20217;-63
2022/11/30 03:57:05;;;;;;;19.05;14.45;;;8.00;99.90;;;;;;5042656;28;20732;-64
2022/11/30 03:59:30;;;;;;;19.70;14.70;;;8.00;99.90;;;;;;5033255;28;20273;-64
2022/11/30 04:01:56;;;;;;;18.83;13.97;;;8.10;99.90;;;;;;5034524;28;20265;-64
2022/11/30 04:04:22;;;;;;;18.30;13.47;;;8.10;99.90;;;;;;5038486;28;20221;-63
2022/11/30 04:06:47;;;;;;;20.53;14.00;;;8.30;99.90;;;;;;5031911;28;20178;-63
2022/11/30 04:09:13;;;;;;;19.00;14.97;;;7.90;99.90;;;;;;5035358;28;20647;-64
2022/11/30 04:11:39;;;;;;;15.60;13.23;;;8.10;99.90;;;;;;5033301;28;20187;-63
2022/11/30 04:14:04;;;;;;;19.33;13.70;;;8.20;99.90;;;;;;5037362;28;20272;-63
2022/11/30 04:16:30;;;;;;;17.60;13.00;;;8.00;99.90;;;;;;5036426;28;20201;-64
2022/11/30 04:18:55;;;;;;;18.13;14.40;;;8.00;99.90;;;;;;5035013;28;20201;-63
2022/11/30 04:21:21;;;;;;;17.40;13.40;;;8.20;99.90;;;;;;5049465;28;20281;-64
2022/11/30 04:23:47;;;;;;;18.60;14.50;;;8.20;99.90;;;;;;5033037;28;20271;-63
2022/11/30 04:26:15;;;;;;;16.27;13.30;;;8.10;99.90;;;;;;5029583;28;20337;-64
2022/11/30 04:28:41;;;;;;;17.20;13.30;;;8.20;99.90;;;;;;5030712;28;20186;-63
2022/11/30 04:31:07;;;;;;;15.93;13.17;;;8.00;99.90;;;;;;5030759;28;20205;-64
2022/11/30 04:33:32;;;;;;;17.45;13.40;;;8.00;99.90;;;;;;5032126;28;20435;-64
2022/11/30 04:36:01;;;;;;;16.70;13.03;;;8.00;99.90;;;;;;5032818;28;20178;-62
2022/11/30 04:38:28;;;;;;;17.50;13.13;;;8.00;99.90;;;;;;5031152;28;20214;-62
2022/11/30 04:40:55;;;;;;;17.83;13.18;;;8.00;99.90;;;;;;5030615;28;20556;-62
2022/11/30 04:43:21;;;;;;;15.75;13.20;;;7.90;99.90;;;;;;5046740;28;20244;-62
2022/11/30 04:45:47;;;;;;;17.75;12.75;;;8.10;99.90;;;;;;5021287;28;20226;-62
2022/11/30 04:48:14;;;;;;;17.42;12.60;;;8.10;99.90;;;;;;5033121;28;20182;-62
2022/11/30 04:50:39;;;;;;;16.00;13.02;;;8.10;99.90;;;;;;5032212;28;20197;-62
2022/11/30 04:53:06;;;;;;;15.33;13.00;;;8.20;99.90;;;;;;5044893;28;20189;-62
2022/11/30 04:55:31;;;;;;;15.10;11.35;;;8.00;99.90;;;;;;5032000;28;20428;-62
2022/11/30 04:57:57;;;;;;;18.20;13.97;;;8.20;99.90;;;;;;5032368;28;20190;-62
2022/11/30 05:00:23;;;;;;;15.57;12.97;;;8.10;99.90;;;;;;5027327;28;20194;-62
2022/11/30 05:02:49;;;;;;;16.48;12.57;;;8.40;99.90;;;;;;5038154;28;20220;-62
2022/11/30 05:05:14;;;;;;;17.80;13.40;;;8.10;99.90;;;;;;5031329;28;20202;-62
2022/11/30 05:07:40;;;;;;;19.27;13.90;;;8.20;99.90;;;;;;5030299;28;20183;-62
2022/11/30 05:10:07;;;;;;;17.40;14.20;;;8.10;99.90;;;;;;5028935;28;20197;-64
2022/11/30 05:12:32;;;;;;;16.15;13.50;;;8.00;99.90;;;;;;5025674;28;20738;-63
2022/11/30 05:14:58;;;;;;;17.00;14.77;;;8.30;99.90;;;;;;5028121;28;20293;-63
2022/11/30 05:17:24;;;;;;;16.77;13.60;;;8.50;99.90;;;;;;5025183;28;20240;-64
2022/11/30 05:19:50;;;;;;;15.10;13.50;;;8.40;99.90;;;;;;5028195;28;20191;-64
2022/11/30 05:22:16;;;;;;;16.53;12.83;;;8.40;99.90;;;;;;5027754;28;20444;-64
2022/11/30 05:24:41;;;;;;;17.83;14.18;;;8.30;99.90;;;;;;5029793;28;20252;-63
2022/11/30 05:27:07;;;;;;;17.00;13.43;;;8.20;99.90;;;;;;5029610;28;20432;-63
2022/11/30 05:29:36;;;;;;;15.90;13.00;;;8.30;99.90;;;;;;5031188;28;20193;-63
2022/11/30 05:32:02;;;;;;;15.02;13.13;;;8.20;99.90;;;;;;5027375;28;20198;-63
2022/11/30 05:34:28;;;;;;;16.03;12.73;;;8.40;99.90;;;;;;5028772;28;20202;-64
2022/11/30 05:36:53;;;;;;;17.63;13.27;;;8.50;99.90;;;;;;5027405;28;20538;-63
2022/11/30 05:39:19;;;;;;;17.40;13.70;;;8.20;99.90;;;;;;5027893;28;20182;-63
2022/11/30 05:41:45;;;;;;;16.90;12.67;;;8.30;99.90;;;;;;5026793;28;20193;-62
2022/11/30 05:44:11;;;;;;;18.73;14.07;;;8.40;99.90;;;;;;5029279;28;20225;-62
2022/11/30 05:46:37;;;;;;;16.73;14.82;;;8.10;99.90;;;;;;5027798;28;20565;-63
2022/11/30 05:49:03;;;;;;;18.37;14.47;;;8.10;99.90;;;;;;5030443;28;20178;-63
2022/11/30 05:51:29;;;;;;;17.60;14.90;;;8.20;99.90;;;;;;5025313;28;20182;-65
2022/11/30 05:53:54;;;;;;;17.27;14.40;;;8.30;99.90;;;;;;5027705;28;20206;-64
2022/11/30 05:56:21;;;;;;;15.43;13.00;;;8.30;99.90;;;;;;5028419;28;20717;-64
2022/11/30 05:58:47;;;;;;;21.25;15.20;;;8.10;99.90;;;;;;5027750;28;20468;-66
2022/11/30 06:01:22;;;;;;;32.95;24.30;;;8.20;99.90;;;;;;5028361;28;20190;-66
2022/11/30 06:03:48;;;;;;;23.05;16.02;;;8.20;99.90;;;;;;5028929;28;20312;-62
2022/11/30 06:06:14;;;;;;;47.00;32.00;;;8.10;99.90;;;;;;5029366;28;20225;-62
2022/11/30 06:08:40;;;;;;;47.80;34.90;;;8.50;99.90;;;;;;5027958;28;20450;-66
2022/11/30 06:11:06;;;;;;;28.90;22.20;;;8.40;99.90;;;;;;5023413;28;20687;-66
2022/11/30 06:13:31;;;;;;;26.67;18.07;;;8.20;99.90;;;;;;5025553;28;20289;-64
2022/11/30 06:15:59;;;;;;;17.80;13.80;;;8.40;99.90;;;;;;5025749;28;20427;-64
2022/11/30 06:18:25;;;;;;;16.45;13.60;;;8.40;99.90;;;;;;5025776;28;20423;-62
2022/11/30 06:20:50;;;;;;;16.97;13.20;;;8.20;99.90;;;;;;5024586;28;20197;-64
2022/11/30 06:23:16;;;;;;;17.30;13.83;;;8.20;99.90;;;;;;5025918;28;20484;-64
2022/11/30 06:25:41;;;;;;;18.20;13.87;;;8.50;99.90;;;;;;5026103;28;20182;-66
2022/11/30 06:28:10;;;;;;;18.73;13.80;;;8.40;99.90;;;;;;5023883;28;20273;-64
2022/11/30 06:30:36;;;;;;;14.95;12.00;;;8.30;99.90;;;;;;5021737;28;20633;-62
2022/11/30 06:33:03;;;;;;;17.27;12.82;;;8.20;99.90;;;;;;5021304;28;20205;-68
2022/11/30 06:35:29;;;;;;;14.65;12.57;;;8.30;99.90;;;;;;5022671;28;20178;-65
2022/11/30 06:37:56;;;;;;;15.63;13.33;;;8.40;99.90;;;;;;5021797;28;20202;-64
2022/11/30 06:40:22;;;;;;;15.45;12.77;;;8.30;99.90;;;;;;5025628;28;20529;-66
2022/11/30 06:42:47;;;;;;;15.80;12.37;;;8.20;99.90;;;;;;5032789;28;20221;-64
2022/11/30 06:45:13;;;;;;;13.30;11.63;;;8.10;99.90;;;;;;5022621;28;22097;-65
2022/11/30 06:47:39;;;;;;;16.57;12.67;;;7.90;99.90;;;;;;5030857;28;20566;-65
2022/11/30 06:50:05;;;;;;;19.97;14.87;;;8.30;99.90;;;;;;5043214;28;20310;-66
2022/11/30 06:52:31;;;;;;;15.55;12.30;;;8.30;99.90;;;;;;5046662;28;20185;-65
2022/11/30 06:54:57;;;;;;;18.17;12.90;;;7.90;99.90;;;;;;5049081;28;20569;-65
2022/11/30 06:57:29;;;;;;;13.83;11.50;;;8.20;99.90;;;;;;5033791;28;21125;-65
2022/11/30 06:59:56;;;;;;;16.13;12.23;;;8.20;99.90;;;;;;5031936;28;20182;-65
2022/11/30 07:02:22;;;;;;;15.35;13.25;;;8.00;99.90;;;;;;5026950;28;20545;-65
2022/11/30 07:04:48;;;;;;;15.00;11.82;;;8.10;99.90;;;;;;5029109;28;20286;-64
2022/11/30 07:07:14;;;;;;;15.03;12.80;;;8.30;99.90;;;;;;5029289;28;20197;-65
2022/11/30 07:09:40;;;;;;;15.25;12.02;;;8.10;99.90;;;;;;5030364;28;20491;-65
2022/11/30 07:12:06;;;;;;;14.53;11.70;;;8.10;99.90;;;;;;5030814;28;20579;-63
2022/11/30 07:14:32;;;;;;;17.17;12.65;;;8.00;99.90;;;;;;5030798;28;20847;-63
2022/11/30 07:16:58;;;;;;;15.13;12.47;;;8.20;99.90;;;;;;5030228;28;20190;-64
2022/11/30 07:19:23;;;;;;;15.27;12.70;;;8.10;99.90;;;;;;5022452;28;20187;-64
2022/11/30 07:21:49;;;;;;;15.93;12.53;;;8.10;99.90;;;;;;5029889;28;20268;-64
2022/11/30 07:27:01;;;;;;;15.85;12.82;;;8.30;99.90;;;;;;5038946;28;20642;-64
2022/11/30 07:29:28;;;;;;;15.70;12.45;;;8.30;99.90;;;;;;5031876;28;20252;-65
2022/11/30 07:31:54;;;;;;;16.45;13.18;;;8.30;99.90;;;;;;5033062;28;20185;-66
2022/11/30 07:34:21;;;;;;;20.63;14.32;;;8.30;99.90;;;;;;5030341;28;20214;-67
2022/11/30 07:36:47;;;;;;;15.05;12.85;;;8.20;99.90;;;;;;5029006;28;20275;-63
2022/11/30 07:39:14;;;;;;;20.13;15.35;;;8.30;99.90;;;;;;5029386;28;20194;-64
2022/11/30 07:41:40;;;;;;;19.15;15.25;;;8.40;99.90;;;;;;5027839;28;20876;-64
2022/11/30 07:44:07;;;;;;;18.75;14.30;;;8.20;99.90;;;;;;5024712;28;20232;-64
2022/11/30 07:46:34;;;;;;;23.48;14.65;;;8.20;99.90;;;;;;5034605;28;20197;-68
2022/11/30 07:49:01;;;;;;;17.58;14.60;;;8.30;99.90;;;;;;5033282;28;20285;-67
2022/11/30 07:51:27;;;;;;;18.38;13.63;;;8.60;99.90;;;;;;5027332;28;20701;-67
2022/11/30 07:53:55;;;;;;;17.70;13.10;;;8.60;99.90;;;;;;5030358;28;20213;-67
2022/11/30 07:56:21;;;;;;;17.17;13.93;;;8.50;99.90;;;;;;5032212;28;20218;-74
2022/11/30 07:58:52;;;;;;;19.83;14.48;;;8.50;99.90;;;;;;5024151;28;20270;-64
2022/11/30 08:01:23;;;;;;;17.63;13.63;;;8.70;99.90;;;;;;5028135;28;20667;-66
2022/11/30 08:03:50;;;;;;;16.25;14.00;;;8.60;99.90;;;;;;5026921;28;20222;-66
2022/11/30 08:06:19;;;;;;;20.20;14.32;;;8.90;99.90;;;;;;5045040;28;20635;-63
2022/11/30 08:08:46;;;;;;;19.33;14.07;;;8.30;99.90;;;;;;5029906;28;20194;-65
2022/11/30 08:11:14;;;;;;;19.70;13.68;;;8.60;99.90;;;;;;5027638;28;20186;-64
2022/11/30 08:13:40;;;;;;;19.08;14.10;;;8.80;99.90;;;;;;5030428;28;20252;-64
2022/11/30 08:16:11;;;;;;;17.83;13.63;;;8.90;99.90;;;;;;5030644;28;20641;-63
2022/11/30 08:18:38;;;;;;;18.85;13.80;;;8.60;99.90;;;;;;5031305;28;20186;-63
2022/11/30 08:21:05;;;;;;;16.40;12.55;;;8.60;99.90;;;;;;5028371;28;20617;-65
2022/11/30 08:23:54;;;;;;;17.10;13.05;;;8.70;99.90;;;;;;5029308;28;20705;-65
2022/11/30 08:26:26;;;;;;;17.65;13.48;;;8.80;99.90;;;;;;5042430;28;20605;-65
2022/11/30 08:28:52;;;;;;;16.55;12.45;;;8.70;99.90;;;;;;5019222;28;20195;-65
2022/11/30 08:31:21;;;;;;;19.42;13.70;;;9.20;99.90;;;;;;5024530;28;20670;-65
2022/11/30 08:33:47;;;;;;;16.85;12.82;;;9.10;99.90;;;;;;5026891;28;20202;-63
2022/11/30 08:36:15;;;;;;;19.80;13.98;;;8.70;99.90;;;;;;5032548;28;20187;-64
2022/11/30 08:38:42;;;;;;;18.38;13.35;;;9.00;99.90;;;;;;5028217;28;20194;-66
2022/11/30 08:41:09;;;;;;;18.63;14.13;;;8.70;99.90;;;;;;5037288;28;20183;-65
2022/11/30 08:43:35;;;;;;;21.88;13.45;;;8.60;99.90;;;;;;5044560;28;20210;-65
2022/11/30 08:46:02;;;;;;;17.93;14.00;;;8.70;99.90;;;;;;5029911;28;20415;-65
2022/11/30 08:48:28;;;;;;;16.80;13.40;;;8.80;99.90;;;;;;5028860;28;20185;-66
2022/11/30 08:50:59;;;;;;;20.80;13.60;;;8.50;99.90;;;;;;5030963;28;20270;-65
2022/11/30 08:53:25;;;;;;;21.00;16.83;;;8.70;99.90;;;;;;5029036;28;20288;-63
2022/11/30 08:55:58;;;;;;;18.03;13.40;;;8.40;99.90;;;;;;5029503;28;20976;-63
2022/11/30 08:58:25;;;;;;;19.10;13.70;;;8.60;99.90;;;;;;5021657;28;20437;-67
2022/11/30 09:00:51;;;;;;;17.80;12.13;;;9.10;99.90;;;;;;5026529;28;20186;-67
2022/11/30 09:03:17;;;;;;;22.83;16.77;;;9.20;99.90;;;;;;5045016;28;20265;-67
2022/11/30 09:05:42;;;;;;;15.20;12.10;;;9.20;99.90;;;;;;5028036;28;20433;-67
2022/11/30 09:08:08;;;;;;;15.83;11.80;;;9.00;99.90;;;;;;5026928;28;20189;-65
2022/11/30 09:10:34;;;;;;;17.77;13.20;;;8.90;99.90;;;;;;5023338;28;20182;-64
2022/11/30 09:12:59;;;;;;;19.40;13.27;;;8.80;99.90;;;;;;5028019;28;20606;-67
2022/11/30 09:15:25;;;;;;;18.33;11.40;;;8.80;99.90;;;;;;5042691;28;20431;-68
2022/11/30 09:17:51;;;;;;;17.33;12.90;;;8.90;99.90;;;;;;5027657;28;20186;-65
2022/11/30 09:20:16;;;;;;;13.97;10.97;;;9.00;99.90;;;;;;5028873;28;20190;-65
2022/11/30 09:22:42;;;;;;;21.03;13.30;;;9.00;99.90;;;;;;5025568;28;20787;-66
2022/11/30 09:25:09;;;;;;;16.47;12.00;;;9.40;99.90;;;;;;5028702;28;20201;-67
2022/11/30 09:27:35;;;;;;;15.73;11.63;;;9.40;99.90;;;;;;5027014;28;20983;-65
2022/11/30 09:30:01;;;;;;;15.05;12.25;;;9.90;99.90;;;;;;5028424;28;20186;-64
2022/11/30 09:32:28;;;;;;;17.77;13.57;;;9.70;99.90;;;;;;5027014;28;20201;-65
2022/11/30 09:34:53;;;;;;;20.33;13.77;;;9.90;99.90;;;;;;5028331;28;20466;-64
2022/11/30 09:37:19;;;;;;;18.00;13.83;;;9.80;99.90;;;;;;5026796;28;20645;-65
2022/11/30 09:39:45;;;;;;;15.70;12.40;;;9.90;99.90;;;;;;5026313;28;20187;-65
2022/11/30 09:42:20;;;;;;;15.00;11.50;;;9.50;99.90;;;;;;5029875;28;20642;-64
2022/11/30 09:44:51;;;;;;;17.27;12.50;;;9.40;99.90;;;;;;5036531;28;20296;-66
2022/11/30 09:47:35;;;;;;;20.10;14.20;;;9.40;99.90;;;;;;5025825;28;20267;-66
2022/11/30 09:50:28;;;;;;;17.00;12.43;;;9.60;99.90;;;;;;5027129;28;20204;-66
2022/11/30 09:52:57;;;;;;;16.27;11.55;;;9.40;99.90;;;;;;5023060;28;20233;-67
2022/11/30 09:55:42;;;;;;;20.85;15.70;;;9.40;99.90;;;;;;5026794;28;20194;-69
2022/11/30 09:58:28;;;;;;;15.52;11.70;;;9.00;99.90;;;;;;5041565;28;20197;-63
2022/11/30 10:00:54;;;;;;;16.52;11.45;;;9.50;99.90;;;;;;5027050;28;20718;-63
2022/11/30 10:03:22;;;;;;;16.63;12.00;;;9.30;99.90;;;;;;5026273;28;20218;-65
2022/11/30 10:06:14;;;;;;;18.65;13.88;;;9.30;99.90;;;;;;5027701;28;20205;-65
2022/11/30 10:08:52;;;;;;;13.55;10.90;;;9.30;99.90;;;;;;5028323;28;20178;-64
2022/11/30 10:11:32;;;;;;;16.20;12.18;;;9.20;99.90;;;;;;5043890;28;20209;-65
2022/11/30 10:14:23;;;;;;;16.13;12.50;;;9.30;99.90;;;;;;5025218;28;20206;-64
2022/11/30 10:16:56;;;;;;;15.82;11.82;;;9.40;99.90;;;;;;5026588;28;20269;-66
2022/11/30 10:19:40;;;;;;;17.85;12.43;;;9.50;99.90;;;;;;5027986;28;20188;-66
2022/11/30 10:22:36;;;;;;;16.73;12.68;;;9.20;99.90;;;;;;5024810;28;20248;-65
2022/11/30 10:25:18;;;;;;;16.30;11.48;;;9.30;99.90;;;;;;5024403;28;20297;-66
2022/11/30 10:27:55;;;;;;;14.38;11.10;;;9.60;99.90;;;;;;5026923;28;20186;-69
2022/11/30 10:30:33;;;;;;;18.60;12.52;;;9.40;99.90;;;;;;5027238;28;20269;-66
2022/11/30 10:33:09;;;;;;;15.55;12.05;;;9.50;99.90;;;;;;5029963;28;20186;-67
2022/11/30 10:35:40;;;;;;;13.43;10.65;;;9.50;99.90;;;;;;5029568;28;20550;-64
2022/11/30 10:38:18;;;;;;;11.38;8.80;;;9.60;99.90;;;;;;5019565;28;20560;-66
2022/11/30 10:40:47;;;;;;;13.88;10.90;;;9.60;99.90;;;;;;5025404;28;20222;-65
2022/11/30 10:43:15;;;;;;;14.65;11.00;;;9.60;99.90;;;;;;5033179;28;20221;-66
2022/11/30 10:45:46;;;;;;;14.60;10.05;;;9.80;99.90;;;;;;5032919;28;20192;-65
2022/11/30 10:48:12;;;;;;;13.50;10.52;;;9.60;99.90;;;;;;5020941;28;20563;-66
2022/11/30 10:50:39;;;;;;;14.40;11.30;;;9.80;99.90;;;;;;5029975;28;20174;-67
2022/11/30 10:53:05;;;;;;;13.18;9.30;;;9.90;99.90;;;;;;5025417;28;20189;-66
2022/11/30 10:55:37;;;;;;;15.37;11.20;;;9.80;99.90;;;;;;5044319;28;20190;-66
2022/11/30 10:58:52;;;;;;;14.93;11.18;;;9.90;99.90;;;;;;5027398;28;20533;-65
2022/11/30 11:01:38;;;;;;;12.60;9.30;;;9.80;99.90;;;;;;4967925;28;20203;-66
2022/11/30 11:04:10;;;;;;;10.48;9.07;;;9.60;99.90;;;;;;5031143;28;20268;-65
2022/11/30 11:06:54;;;;;;;14.00;10.65;;;9.50;99.90;;;;;;5025380;28;20271;-65
2022/11/30 11:09:39;;;;;;;13.60;10.05;;;9.50;99.90;;;;;;5027656;28;20233;-64
2022/11/30 11:12:18;;;;;;;19.63;13.23;;;9.70;99.90;;;;;;5027487;28;20187;-66
2022/11/30 11:14:44;;;;;;;13.75;10.00;;;9.70;99.90;;;;;;5037579;28;20210;-66
2022/11/30 11:17:20;;;;;;;16.98;11.07;;;9.50;99.90;;;;;;5026611;28;20198;-65
2022/11/30 11:19:47;;;;;;;15.10;10.38;;;9.50;99.90;;;;;;5025642;28;20651;-64
2022/11/30 11:22:25;;;;;;;15.35;10.50;;;9.20;99.90;;;;;;5027971;28;20199;-63
2022/11/30 11:25:14;;;;;;;14.65;10.68;;;9.30;99.90;;;;;;5036314;28;20201;-65
2022/11/30 11:27:40;;;;;;;16.52;12.20;;;9.50;99.90;;;;;;5028189;28;20187;-65
2022/11/30 11:30:26;;;;;;;18.03;14.10;;;9.30;99.90;;;;;;5028051;28;20190;-65
2022/11/30 11:33:17;;;;;;;14.10;10.77;;;9.20;99.90;;;;;;5025169;28;20319;-66
2022/11/30 11:35:46;;;;;;;15.52;10.55;;;9.30;99.90;;;;;;5041447;28;20180;-63
2022/11/30 11:38:19;;;;;;;17.30;10.65;;;9.30;99.90;;;;;;5028299;28;20190;-63
2022/11/30 11:41:09;;;;;;;12.27;10.52;;;9.30;99.90;;;;;;5029585;28;20277;-64
2022/11/30 11:43:56;;;;;;;14.93;11.57;;;9.10;99.90;;;;;;5029073;28;20242;-64
2022/11/30 11:46:23;;;;;;;15.35;9.65;;;9.30;99.90;;;;;;5031526;28;20639;-64
2022/11/30 11:48:57;;;;;;;14.20;9.75;;;9.40;99.90;;;;;;5032154;28;20273;-64
2022/11/30 11:51:36;;;;;;;12.95;9.98;;;9.60;99.90;;;;;;5030453;28;20262;-64
2022/11/30 11:54:07;;;;;;;11.65;9.40;;;9.60;99.90;;;;;;5024645;28;20219;-66
2022/11/30 11:56:35;;;;;;;12.20;9.65;;;9.60;99.90;;;;;;5039361;28;20190;-66
2022/11/30 11:59:35;;;;;;;12.65;9.48;;;9.70;99.90;;;;;;5027292;28;20202;-65
2022/11/30 12:02:07;;;;;;;12.40;8.25;;;9.60;99.90;;;;;;5032168;28;20184;-65
2022/11/30 12:04:56;;;;;;;13.48;10.90;;;9.60;99.90;;;;;;5026351;28;20604;-65
2022/11/30 12:07:38;;;;;;;9.55;8.02;;;9.40;99.90;;;;;;5027612;28;20194;-61
2022/11/30 12:10:25;;;;;;;11.50;8.57;;;9.30;99.90;;;;;;5027244;28;20245;-62
2022/11/30 12:12:53;;;;;;;9.55;8.18;;;9.30;99.90;;;;;;5028631;28;20187;-62
2022/11/30 12:15:25;;;;;;;13.07;9.60;;;9.40;99.90;;;;;;5026103;28;20298;-62
2022/11/30 12:18:07;;;;;;;11.70;9.40;;;9.50;99.90;;;;;;5020996;28;20178;-63
2022/11/30 12:20:48;;;;;;;11.73;9.52;;;9.60;99.90;;;;;;5031063;28;20186;-64
2022/11/30 12:23:32;;;;;;;12.27;9.15;;;9.40;99.90;;;;;;5018221;28;20611;-63
2022/11/30 12:26:19;;;;;;;13.52;10.18;;;9.70;99.90;;;;;;5029101;28;20189;-63
2022/11/30 12:28:55;;;;;;;13.57;10.40;;;9.50;99.90;;;;;;5031324;28;20192;-65
2022/11/30 12:31:28;;;;;;;14.52;11.18;;;9.40;99.90;;;;;;5026587;28;20221;-63
2022/11/30 12:34:06;;;;;;;14.75;9.80;;;9.60;99.90;;;;;;5033831;28;20210;-64
2022/11/30 12:36:39;;;;;;;14.18;11.15;;;9.50;99.90;;;;;;5043313;28;20212;-63
2022/11/30 12:39:24;;;;;;;13.55;10.57;;;9.30;99.90;;;;;;5025016;28;20208;-65
2022/11/30 12:41:58;;;;;;;15.55;10.40;;;9.60;99.90;;;;;;5033233;28;20183;-64
2022/11/30 12:44:36;;;;;;;10.93;8.98;;;9.40;99.90;;;;;;5027601;28;20315;-66
2022/11/30 12:47:25;;;;;;;13.00;10.10;;;9.40;99.90;;;;;;5022917;28;20197;-63
2022/11/30 12:50:20;;;;;;;12.38;9.05;;;9.30;99.90;;;;;;5027273;28;20183;-64
2022/11/30 12:53:07;;;;;;;13.05;10.50;;;9.20;99.90;;;;;;5022185;28;20198;-65
2022/11/30 12:55:44;;;;;;;12.27;9.48;;;9.50;99.90;;;;;;5029281;28;20197;-64